Time;durP1;ratioP1;P1;durP2;ratioP2;P2;SDS_P1;SDS_P2;PMS_P1;PMS_P2;Temp;Humidity;BMP_temperature;BMP_pressure;BME280_temperature;BME280_humidity;BME280_pressure;Samples;Min_cycle;Max_cycle;Signal;HPM_P1;HPM_P2
2021/06/25 00:00:48;;;;;;;27.70;21.30;;;17.80;99.90;;;;;;5056700;28;20047;-75
2021/06/25 00:03:14;;;;;;;26.90;22.10;;;17.80;99.90;;;;;;5048445;28;20025;-74
2021/06/25 00:05:40;;;;;;;27.83;21.33;;;17.80;99.90;;;;;;5044605;28;20028;-74
2021/06/25 00:08:05;;;;;;;30.58;23.60;;;17.70;99.90;;;;;;5050961;28;20025;-74
2021/06/25 00:10:32;;;;;;;27.80;22.00;;;17.60;99.90;;;;;;5049327;28;20114;-74
2021/06/25 00:12:59;;;;;;;24.30;21.70;;;17.70;99.90;;;;;;5049556;28;20024;-74
2021/06/25 00:15:25;;;;;;;28.80;22.27;;;17.60;99.90;;;;;;5041944;28;20063;-74
2021/06/25 00:17:50;;;;;;;27.77;21.95;;;17.60;99.90;;;;;;5050301;28;20049;-74
2021/06/25 00:20:16;;;;;;;31.65;23.38;;;17.50;99.90;;;;;;5047621;28;20034;-74
2021/06/25 00:22:45;;;;;;;34.08;22.63;;;17.50;99.90;;;;;;5044082;28;20371;-74
2021/06/25 00:25:12;;;;;;;29.10;23.45;;;17.50;99.90;;;;;;5046976;28;20055;-74
2021/06/25 00:27:38;;;;;;;32.63;22.80;;;17.40;99.90;;;;;;5040707;28;20036;-74
2021/06/25 00:30:05;;;;;;;30.70;23.80;;;17.40;99.90;;;;;;5054921;28;20032;-74
2021/06/25 00:32:31;;;;;;;32.55;23.48;;;17.30;99.90;;;;;;5048430;28;20056;-74
2021/06/25 00:34:57;;;;;;;30.48;24.65;;;17.30;99.90;;;;;;5047669;28;20052;-74
2021/06/25 00:37:22;;;;;;;31.45;23.85;;;17.20;99.90;;;;;;5050563;28;20048;-74
2021/06/25 00:39:48;;;;;;;29.92;22.73;;;17.20;99.90;;;;;;5055918;28;20012;-74
2021/06/25 00:42:13;;;;;;;31.15;22.25;;;17.20;99.90;;;;;;5055333;28;20144;-74
2021/06/25 00:44:40;;;;;;;30.83;23.80;;;17.10;99.90;;;;;;5052545;28;20443;-74
2021/06/25 00:47:07;;;;;;;30.75;22.17;;;17.10;99.90;;;;;;5059252;28;20094;-74
2021/06/25 00:49:33;;;;;;;23.80;20.55;;;17.00;99.90;;;;;;5055237;28;20021;-74
2021/06/25 00:51:58;;;;;;;31.25;22.10;;;17.00;99.90;;;;;;5055772;28;20024;-74
2021/06/25 00:54:24;;;;;;;29.40;23.52;;;16.90;99.90;;;;;;5053547;28;20021;-75
2021/06/25 00:56:50;;;;;;;28.55;22.08;;;16.90;99.90;;;;;;5054679;28;20028;-75
2021/06/25 00:59:15;;;;;;;26.83;21.75;;;16.80;99.90;;;;;;5055596;28;20056;-74
2021/06/25 01:01:41;;;;;;;28.95;22.05;;;16.80;99.90;;;;;;5054954;28;20031;-74
2021/06/25 01:04:06;;;;;;;32.08;22.48;;;16.80;99.90;;;;;;5056235;28;20032;-75
2021/06/25 01:06:32;;;;;;;27.85;22.20;;;16.70;99.90;;;;;;5056988;28;20033;-74
2021/06/25 01:08:58;;;;;;;29.65;21.50;;;16.70;99.90;;;;;;5056201;28;20478;-74
2021/06/25 01:11:27;;;;;;;26.15;22.83;;;16.60;99.90;;;;;;5055162;28;20029;-74
2021/06/25 01:13:54;;;;;;;34.10;23.05;;;16.60;99.90;;;;;;5055931;28;20021;-75
2021/06/25 01:16:19;;;;;;;28.23;23.73;;;16.50;99.90;;;;;;5057820;28;20393;-74
2021/06/25 01:18:45;;;;;;;26.08;21.98;;;16.50;99.90;;;;;;5050955;28;20029;-74
2021/06/25 01:21:11;;;;;;;28.60;22.48;;;16.40;99.90;;;;;;5054321;28;20414;-75
2021/06/25 01:23:38;;;;;;;25.98;23.10;;;16.40;99.90;;;;;;5047632;28;20466;-74
2021/06/25 01:26:04;;;;;;;28.83;22.65;;;16.40;99.90;;;;;;5048720;28;20397;-74
2021/06/25 01:28:30;;;;;;;29.67;23.48;;;16.30;99.90;;;;;;5061205;28;20025;-74
2021/06/25 01:30:55;;;;;;;28.38;23.50;;;16.20;99.90;;;;;;5054652;28;20489;-74
2021/06/25 01:33:21;;;;;;;30.00;23.42;;;16.30;99.90;;;;;;5052990;28;20024;-74
2021/06/25 01:35:47;;;;;;;34.33;24.75;;;16.10;99.90;;;;;;5056890;28;20021;-74
2021/06/25 01:38:14;;;;;;;30.02;22.67;;;16.10;99.90;;;;;;5055683;28;20016;-74
2021/06/25 01:40:42;;;;;;;27.75;21.52;;;16.10;99.90;;;;;;5052939;28;20385;-74
2021/06/25 01:43:09;;;;;;;31.95;22.15;;;16.10;99.90;;;;;;5053981;28;20032;-74
2021/06/25 01:45:37;;;;;;;29.63;24.30;;;16.00;99.90;;;;;;5052235;28;20077;-74
2021/06/25 01:48:04;;;;;;;29.90;23.55;;;15.90;99.90;;;;;;5054082;28;20009;-74
2021/06/25 01:50:36;;;;;;;23.95;21.15;;;15.90;99.90;;;;;;5055013;28;20029;-74
2021/06/25 01:53:03;;;;;;;28.58;22.63;;;15.80;99.90;;;;;;5054931;28;20117;-74
2021/06/25 01:55:41;;;;;;;32.25;23.42;;;15.80;99.90;;;;;;5052590;28;20104;-76
2021/06/25 01:58:10;;;;;;;29.83;23.58;;;15.80;99.90;;;;;;5047674;28;20045;-74
2021/06/25 02:00:38;;;;;;;30.77;24.15;;;15.70;99.90;;;;;;5049850;28;20041;-74
2021/06/25 02:03:03;;;;;;;31.15;24.52;;;15.70;99.90;;;;;;5050740;28;20028;-76
2021/06/25 02:05:29;;;;;;;34.95;25.30;;;15.70;99.90;;;;;;5074431;28;20032;-75
2021/06/25 02:07:55;;;;;;;30.52;22.95;;;15.60;99.90;;;;;;5057812;28;20056;-75
2021/06/25 02:10:20;;;;;;;32.00;23.45;;;15.50;99.90;;;;;;5053602;28;20021;-75
2021/06/25 02:12:46;;;;;;;31.67;24.33;;;15.40;99.90;;;;;;5054295;28;20029;-75
2021/06/25 02:15:12;;;;;;;31.25;22.60;;;15.40;99.90;;;;;;5055212;28;20021;-75
2021/06/25 02:17:38;;;;;;;29.50;24.00;;;15.40;99.90;;;;;;5058035;28;20033;-74
2021/06/25 02:20:06;;;;;;;31.92;23.45;;;15.40;99.90;;;;;;5056357;28;20476;-75
2021/06/25 02:22:32;;;;;;;33.63;25.60;;;15.40;99.90;;;;;;5054879;28;20021;-75
2021/06/25 02:24:57;;;;;;;35.22;27.67;;;15.30;99.90;;;;;;5054462;28;20126;-75
2021/06/25 02:27:23;;;;;;;36.15;28.67;;;15.40;99.90;;;;;;5064522;28;20021;-75
2021/06/25 02:29:49;;;;;;;37.45;28.95;;;15.30;99.90;;;;;;5063370;28;20021;-74
2021/06/25 02:32:14;;;;;;;33.28;26.40;;;15.30;99.90;;;;;;5062685;28;20032;-75
2021/06/25 02:34:40;;;;;;;32.53;25.92;;;15.30;99.90;;;;;;5057221;28;20247;-75
2021/06/25 02:37:05;;;;;;;40.78;28.95;;;15.30;99.90;;;;;;5063206;28;20098;-75
2021/06/25 02:39:31;;;;;;;30.63;25.30;;;15.30;99.90;;;;;;5058650;28;20028;-75
2021/06/25 02:41:57;;;;;;;37.67;26.83;;;15.30;99.90;;;;;;5058823;28;20033;-75
2021/06/25 02:44:22;;;;;;;34.42;25.52;;;15.30;99.90;;;;;;5061065;28;20060;-75
2021/06/25 02:46:48;;;;;;;38.30;26.50;;;15.20;99.90;;;;;;5062931;28;20477;-75
2021/06/25 02:49:16;;;;;;;40.45;27.02;;;15.20;99.90;;;;;;5063011;28;20192;-75
2021/06/25 02:51:42;;;;;;;35.08;25.73;;;15.20;99.90;;;;;;5064970;28;20025;-75
2021/06/25 02:54:07;;;;;;;33.95;26.13;;;15.20;99.90;;;;;;5064968;28;20029;-75
2021/06/25 02:56:33;;;;;;;34.05;25.92;;;15.20;99.90;;;;;;5059229;28;20047;-75
2021/06/25 02:58:59;;;;;;;34.67;25.90;;;15.20;99.90;;;;;;5057849;28;20100;-75
2021/06/25 03:01:24;;;;;;;33.05;26.02;;;15.10;99.90;;;;;;5057792;28;20075;-75
2021/06/25 03:03:50;;;;;;;33.78;26.13;;;15.10;99.90;;;;;;5056794;28;20104;-75
2021/06/25 03:06:15;;;;;;;38.95;26.77;;;15.00;99.90;;;;;;5063768;28;20397;-76
2021/06/25 03:08:41;;;;;;;37.28;25.80;;;15.00;99.90;;;;;;5055076;28;20032;-75
2021/06/25 03:11:07;;;;;;;36.08;25.85;;;15.00;99.90;;;;;;5063182;28;20029;-75
2021/06/25 03:13:32;;;;;;;39.15;28.48;;;15.00;99.90;;;;;;5065410;28;20469;-75
2021/06/25 03:15:58;;;;;;;33.75;26.25;;;15.00;99.90;;;;;;5055386;28;20426;-76
2021/06/25 03:18:24;;;;;;;34.90;27.05;;;15.00;99.90;;;;;;5054225;28;20036;-76
2021/06/25 03:20:49;;;;;;;38.20;26.42;;;15.00;99.90;;;;;;5061963;28;20025;-75
2021/06/25 03:23:15;;;;;;;37.20;25.75;;;15.00;99.90;;;;;;5061696;28;20085;-75
2021/06/25 03:25:41;;;;;;;37.83;26.35;;;14.90;99.90;;;;;;5058620;28;20395;-75
2021/06/25 03:28:07;;;;;;;37.00;26.08;;;14.90;99.90;;;;;;5052262;28;20032;-75
2021/06/25 03:30:33;;;;;;;39.40;25.42;;;14.90;99.90;;;;;;5063354;28;20439;-75
2021/06/25 03:33:00;;;;;;;37.45;27.02;;;14.90;99.90;;;;;;5059841;28;20393;-75
2021/06/25 03:35:25;;;;;;;36.55;26.17;;;14.90;99.90;;;;;;5065934;28;20021;-75
2021/06/25 03:37:51;;;;;;;35.00;23.67;;;14.90;99.90;;;;;;5058584;28;20027;-75
2021/06/25 03:40:17;;;;;;;34.92;23.67;;;14.90;99.90;;;;;;5064988;28;20020;-75
2021/06/25 03:42:44;;;;;;;36.30;25.77;;;14.80;99.90;;;;;;5059325;28;20496;-75
2021/06/25 03:45:12;;;;;;;31.08;22.52;;;14.80;99.90;;;;;;5057769;28;20064;-76
2021/06/25 03:47:39;;;;;;;32.47;23.95;;;14.80;99.90;;;;;;5052860;28;20029;-76
2021/06/25 03:50:06;;;;;;;35.13;23.38;;;14.70;99.90;;;;;;5064608;28;20638;-75
2021/06/25 03:52:32;;;;;;;35.85;24.90;;;14.80;99.90;;;;;;5060527;28;20024;-75
2021/06/25 03:54:57;;;;;;;33.47;24.42;;;14.70;99.90;;;;;;5063636;28;20082;-76
2021/06/25 03:57:23;;;;;;;41.88;29.35;;;14.70;99.90;;;;;;5053038;28;20444;-75
2021/06/25 03:59:49;;;;;;;41.88;30.20;;;14.70;99.90;;;;;;5061671;28;20367;-76
2021/06/25 04:02:15;;;;;;;35.88;25.17;;;14.80;99.90;;;;;;5062777;28;20457;-76
2021/06/25 04:04:41;;;;;;;37.58;24.90;;;14.80;99.90;;;;;;5058852;28;20045;-75
2021/06/25 04:07:07;;;;;;;36.78;25.88;;;14.90;99.90;;;;;;5063476;28;20477;-75
2021/06/25 04:09:33;;;;;;;39.85;27.10;;;14.90;99.90;;;;;;5061155;28;20021;-75
2021/06/25 04:12:00;;;;;;;36.92;27.02;;;14.90;99.90;;;;;;5057641;28;20025;-75
2021/06/25 04:14:26;;;;;;;37.38;25.30;;;14.90;99.90;;;;;;5061578;28;20484;-75
2021/06/25 04:16:52;;;;;;;36.55;24.30;;;15.00;99.90;;;;;;5057595;28;20024;-75
2021/06/25 04:19:17;;;;;;;39.00;26.63;;;15.00;99.90;;;;;;5056533;28;20017;-75
2021/06/25 04:21:43;;;;;;;41.42;28.70;;;15.00;99.90;;;;;;5066766;28;20025;-75
2021/06/25 04:24:09;;;;;;;40.22;26.98;;;15.00;99.90;;;;;;5065171;28;20087;-75
2021/06/25 04:26:36;;;;;;;41.78;29.08;;;15.00;99.90;;;;;;5066140;28;20098;-75
2021/06/25 04:29:04;;;;;;;49.20;33.40;;;15.10;99.90;;;;;;5064679;28;20492;-75
2021/06/25 04:31:30;;;;;;;51.20;33.60;;;15.10;99.90;;;;;;5064712;28;20017;-75
2021/06/25 04:33:56;;;;;;;72.90;42.85;;;15.10;99.90;;;;;;5062485;28;20051;-75
2021/06/25 04:36:21;;;;;;;66.53;40.15;;;15.20;99.90;;;;;;5052951;28;20029;-75
2021/06/25 04:38:47;;;;;;;61.47;40.40;;;15.20;99.90;;;;;;5057316;28;20024;-75
2021/06/25 04:41:12;;;;;;;69.35;43.65;;;15.30;99.90;;;;;;5061319;28;20040;-75
2021/06/25 04:43:38;;;;;;;71.10;43.67;;;15.30;99.90;;;;;;5068204;28;20025;-75
2021/06/25 04:46:04;;;;;;;77.88;45.08;;;15.40;99.90;;;;;;5063485;28;20039;-75
2021/06/25 04:48:30;;;;;;;75.45;45.85;;;15.30;99.90;;;;;;5064599;28;20481;-75
2021/06/25 04:50:56;;;;;;;73.47;45.35;;;15.40;99.90;;;;;;5069030;28;20039;-75
2021/06/25 04:53:21;;;;;;;70.35;42.30;;;15.40;99.90;;;;;;5066589;28;20105;-75
2021/06/25 04:55:47;;;;;;;72.80;45.53;;;15.30;99.90;;;;;;5061970;28;20024;-75
2021/06/25 04:58:16;;;;;;;76.97;46.40;;;15.40;99.90;;;;;;5057040;28;20362;-75
2021/06/25 05:00:43;;;;;;;80.43;46.67;;;15.40;99.90;;;;;;5065486;28;20032;-75
2021/06/25 05:03:09;;;;;;;80.45;48.85;;;15.40;99.90;;;;;;5062197;28;20162;-75
2021/06/25 05:05:36;;;;;;;74.90;45.53;;;15.50;99.90;;;;;;5062794;28;20037;-75
2021/06/25 05:08:02;;;;;;;80.63;49.25;;;15.60;99.90;;;;;;5067669;28;20020;-75
2021/06/25 05:10:28;;;;;;;79.82;50.50;;;15.60;99.90;;;;;;5068061;28;20110;-75
2021/06/25 05:12:53;;;;;;;81.65;50.78;;;15.60;99.90;;;;;;5061772;28;20412;-75
2021/06/25 05:15:22;;;;;;;83.47;51.10;;;15.60;99.90;;;;;;5058121;28;20100;-75
2021/06/25 05:17:49;;;;;;;86.18;49.47;;;15.60;99.90;;;;;;5049950;28;20018;-75
2021/06/25 05:20:16;;;;;;;82.97;47.72;;;15.70;99.90;;;;;;5060419;28;20032;-76
2021/06/25 05:22:42;;;;;;;71.97;46.05;;;15.70;99.90;;;;;;5056889;28;20028;-76
2021/06/25 05:25:08;;;;;;;80.65;48.50;;;15.70;99.90;;;;;;5059082;28;20045;-76
2021/06/25 05:27:34;;;;;;;71.20;45.20;;;15.70;99.90;;;;;;5063207;28;20477;-76
2021/06/25 05:29:59;;;;;;;73.22;46.22;;;15.80;99.90;;;;;;5068285;28;20405;-76
2021/06/25 05:32:25;;;;;;;69.80;44.85;;;15.80;99.90;;;;;;5058875;28;20281;-75
2021/06/25 05:34:51;;;;;;;67.63;44.10;;;15.90;99.90;;;;;;5065197;28;20032;-75
2021/06/25 05:37:16;;;;;;;73.20;46.08;;;15.80;99.90;;;;;;5061571;28;20508;-75
2021/06/25 05:39:42;;;;;;;68.75;43.88;;;15.90;99.90;;;;;;5061486;28;20546;-75
2021/06/25 05:42:08;;;;;;;65.78;42.53;;;15.90;99.90;;;;;;5064943;28;20029;-75
2021/06/25 05:44:35;;;;;;;64.70;40.55;;;15.90;99.90;;;;;;5061463;28;20443;-81
2021/06/25 05:47:01;;;;;;;62.13;39.50;;;16.00;99.90;;;;;;5061294;28;20033;-75
2021/06/25 05:49:27;;;;;;;56.80;40.20;;;16.00;99.90;;;;;;5065022;28;20029;-74
2021/06/25 05:51:53;;;;;;;61.42;39.78;;;16.00;99.90;;;;;;5064801;28;20036;-74
2021/06/25 05:54:18;;;;;;;56.70;37.40;;;16.10;99.90;;;;;;5060609;28;20037;-74
2021/06/25 05:56:44;;;;;;;51.92;36.45;;;16.10;99.90;;;;;;5057801;28;20108;-75
2021/06/25 05:59:09;;;;;;;54.50;37.35;;;16.20;99.90;;;;;;5058589;28;20047;-75
2021/06/25 06:01:35;;;;;;;49.30;34.55;;;16.20;99.90;;;;;;5064869;28;20024;-74
2021/06/25 06:04:01;;;;;;;50.30;35.17;;;16.10;99.90;;;;;;5065629;28;20033;-75
2021/06/25 06:06:26;;;;;;;49.25;35.28;;;16.10;99.90;;;;;;5059840;28;20489;-75
2021/06/25 06:08:52;;;;;;;49.53;34.00;;;16.10;99.90;;;;;;5058286;28;20029;-75
2021/06/25 06:11:18;;;;;;;48.75;36.30;;;16.30;99.90;;;;;;5068609;28;20377;-75
2021/06/25 06:13:44;;;;;;;49.53;32.83;;;16.40;99.90;;;;;;5058581;28;20489;-75
2021/06/25 06:16:10;;;;;;;47.25;32.47;;;16.50;99.90;;;;;;5052090;28;20074;-74
2021/06/25 06:21:01;;;;;;;45.03;33.35;;;16.60;99.90;;;;;;5057739;28;20029;-75
2021/06/25 06:31:44;;;;;;;38.65;29.77;;;16.80;99.90;;;;;;5057398;28;20040;-74
2021/06/25 06:34:12;;;;;;;39.20;29.38;;;16.90;99.90;;;;;;5052304;28;20370;-74
2021/06/25 06:36:45;;;;;;;38.85;28.02;;;17.00;99.90;;;;;;5067535;28;20170;-74
2021/06/25 06:39:12;;;;;;;40.03;28.08;;;17.10;99.90;;;;;;5052942;28;20021;-75
2021/06/25 06:41:38;;;;;;;39.15;29.45;;;17.10;99.90;;;;;;5051214;28;20035;-75
2021/06/25 06:44:05;;;;;;;38.13;27.92;;;17.20;99.90;;;;;;5054606;28;20123;-75
2021/06/25 06:46:31;;;;;;;36.80;26.30;;;17.30;99.90;;;;;;5057330;28;20025;-75
2021/06/25 06:48:57;;;;;;;35.28;25.88;;;17.40;99.90;;;;;;5052086;28;20114;-75
2021/06/25 06:51:23;;;;;;;36.33;25.00;;;17.40;99.90;;;;;;5052803;28;20048;-74
2021/06/25 06:53:53;;;;;;;31.98;23.95;;;17.40;99.90;;;;;;5058920;28;20091;-75
2021/06/25 06:56:20;;;;;;;32.17;23.83;;;17.50;99.90;;;;;;5066000;28;20029;-75
2021/06/25 06:58:47;;;;;;;33.20;24.15;;;17.50;99.90;;;;;;5057814;28;20484;-75
2021/06/25 07:01:13;;;;;;;32.50;24.75;;;17.50;99.90;;;;;;5055960;28;20028;-75
2021/06/25 07:03:39;;;;;;;32.45;22.27;;;17.60;99.90;;;;;;5063648;28;20032;-74
2021/06/25 07:06:05;;;;;;;32.40;23.67;;;17.70;99.90;;;;;;5030140;28;20380;-74
2021/06/25 07:08:31;;;;;;;33.28;24.13;;;17.60;99.90;;;;;;5046774;28;20029;-74
2021/06/25 07:10:58;;;;;;;32.42;24.45;;;17.70;99.90;;;;;;5058938;28;20392;-75
2021/06/25 07:13:24;;;;;;;32.95;22.67;;;17.70;99.90;;;;;;5052789;28;20095;-76
2021/06/25 07:15:50;;;;;;;30.55;21.77;;;17.70;99.90;;;;;;5061581;28;20029;-76
2021/06/25 07:18:16;;;;;;;32.53;23.83;;;17.80;99.90;;;;;;5057688;28;20033;-74
2021/06/25 07:20:42;;;;;;;31.83;23.48;;;17.90;99.90;;;;;;5060423;28;20150;-75
2021/06/25 07:23:07;;;;;;;30.70;23.02;;;17.90;99.90;;;;;;5055741;28;20540;-77
2021/06/25 07:25:33;;;;;;;31.38;21.33;;;17.80;99.90;;;;;;5059037;28;20037;-74
2021/06/25 07:27:59;;;;;;;27.38;20.92;;;17.70;99.90;;;;;;5055104;28;20473;-74
2021/06/25 07:30:25;;;;;;;32.40;21.50;;;17.80;99.90;;;;;;5048972;28;20036;-74
2021/06/25 07:32:51;;;;;;;32.42;21.67;;;18.00;99.90;;;;;;5050157;28;20020;-74
2021/06/25 07:35:17;;;;;;;30.92;22.77;;;18.00;99.90;;;;;;5048626;28;20537;-75
2021/06/25 07:37:43;;;;;;;27.05;21.67;;;18.00;99.90;;;;;;5047215;28;20016;-74
2021/06/25 07:40:10;;;;;;;24.23;19.02;;;18.00;99.90;;;;;;5052004;28;20029;-74
2021/06/25 07:42:36;;;;;;;27.40;19.77;;;18.00;99.90;;;;;;5042907;28;20520;-75
2021/06/25 07:45:07;;;;;;;26.85;19.10;;;18.20;99.90;;;;;;5044747;28;20104;-75
2021/06/25 07:47:37;;;;;;;28.85;23.35;;;18.30;99.90;;;;;;5049947;28;20049;-75
2021/06/25 07:50:05;;;;;;;25.48;18.83;;;18.30;99.90;;;;;;5047444;28;20016;-74
2021/06/25 07:52:31;;;;;;;23.55;17.85;;;18.20;99.90;;;;;;5062022;28;20439;-75
2021/06/25 07:54:57;;;;;;;24.15;18.70;;;18.10;99.90;;;;;;5045744;28;20032;-75
2021/06/25 07:57:23;;;;;;;26.42;18.98;;;18.20;99.90;;;;;;5046200;28;20032;-74
2021/06/25 07:59:48;;;;;;;27.70;18.83;;;18.20;99.90;;;;;;5043269;28;20024;-75
2021/06/25 08:02:14;;;;;;;22.23;17.88;;;18.20;99.90;;;;;;5048025;28;20028;-75
2021/06/25 08:04:45;;;;;;;21.52;17.08;;;18.30;99.90;;;;;;5053897;28;20450;-75
2021/06/25 08:07:10;;;;;;;26.45;18.80;;;18.20;99.90;;;;;;5053508;28;20020;-74
2021/06/25 08:09:36;;;;;;;20.50;17.02;;;18.20;99.90;;;;;;5046653;28;20104;-74
2021/06/25 08:12:02;;;;;;;23.27;18.20;;;18.30;99.90;;;;;;5052579;28;20032;-75
2021/06/25 08:14:27;;;;;;;26.10;17.58;;;18.40;99.90;;;;;;5050329;28;20033;-75
2021/06/25 08:16:53;;;;;;;24.38;17.70;;;18.50;99.90;;;;;;5051318;28;20393;-74
2021/06/25 08:19:19;;;;;;;20.60;17.02;;;18.40;99.90;;;;;;5041151;28;20045;-75
2021/06/25 08:21:44;;;;;;;21.33;16.88;;;18.40;99.90;;;;;;5046973;28;20029;-74
2021/06/25 08:24:10;;;;;;;20.95;17.10;;;18.50;99.90;;;;;;5049720;28;20440;-74
2021/06/25 08:26:36;;;;;;;22.20;17.50;;;18.50;99.90;;;;;;5043943;28;20029;-75
2021/06/25 08:29:01;;;;;;;18.17;14.60;;;18.50;99.90;;;;;;5050374;28;20025;-75
2021/06/25 08:31:27;;;;;;;18.88;15.55;;;18.60;99.90;;;;;;5051823;28;20044;-75
2021/06/25 08:33:52;;;;;;;19.73;15.52;;;18.80;99.90;;;;;;5050568;28;20021;-73
2021/06/25 08:36:18;;;;;;;24.52;15.25;;;18.90;99.90;;;;;;5045571;28;20090;-74
2021/06/25 08:38:43;;;;;;;19.30;15.43;;;19.00;99.90;;;;;;5050119;28;20369;-74
2021/06/25 08:41:09;;;;;;;19.80;14.93;;;19.00;99.90;;;;;;5052304;28;20362;-74
2021/06/25 08:43:35;;;;;;;17.33;13.70;;;19.10;99.90;;;;;;5048132;28;20025;-74
2021/06/25 08:46:01;;;;;;;19.38;12.82;;;19.20;99.90;;;;;;5048959;28;20090;-74
2021/06/25 08:48:28;;;;;;;17.52;13.18;;;19.10;99.90;;;;;;5051652;28;20112;-74
2021/06/25 08:50:57;;;;;;;19.23;12.98;;;19.20;99.90;;;;;;5047779;28;20028;-74
2021/06/25 08:53:23;;;;;;;17.88;12.90;;;19.30;99.90;;;;;;5047016;28;20030;-74
2021/06/25 08:55:49;;;;;;;16.13;12.18;;;19.40;99.90;;;;;;5052707;28;21016;-74
2021/06/25 08:58:20;;;;;;;17.55;11.95;;;19.50;99.90;;;;;;5050968;28;20024;-74
2021/06/25 09:00:46;;;;;;;15.48;11.65;;;19.70;99.90;;;;;;5053940;28;20024;-74
2021/06/25 09:03:20;;;;;;;15.13;11.57;;;19.90;99.90;;;;;;5049581;28;20100;-74
2021/06/25 09:05:45;;;;;;;13.43;11.32;;;19.90;99.90;;;;;;5047855;28;20503;-74
2021/06/25 09:08:25;;;;;;;17.08;12.45;;;20.20;99.90;;;;;;5055356;28;20025;-74
2021/06/25 09:10:53;;;;;;;15.55;11.02;;;20.20;99.90;;;;;;5050631;28;20554;-74
2021/06/25 09:13:30;;;;;;;14.73;11.98;;;20.20;99.90;;;;;;5054196;28;20029;-74
2021/06/25 09:15:56;;;;;;;14.38;10.82;;;20.50;99.90;;;;;;5054968;28;20029;-74
2021/06/25 09:18:21;;;;;;;15.65;10.40;;;20.70;99.90;;;;;;5054950;28;20025;-73
2021/06/25 09:20:55;;;;;;;14.00;11.27;;;20.90;99.90;;;;;;5049190;28;20435;-74
2021/06/25 09:23:34;;;;;;;14.75;10.85;;;21.10;99.90;;;;;;5056004;28;20033;-71
2021/06/25 09:26:06;;;;;;;13.00;10.60;;;21.30;99.90;;;;;;5049864;28;20048;-73
2021/06/25 09:28:41;;;;;;;12.88;10.60;;;21.50;99.90;;;;;;5053991;28;20013;-74
2021/06/25 09:31:22;;;;;;;14.30;11.10;;;21.70;99.90;;;;;;5047977;28;20512;-74
2021/06/25 09:33:50;;;;;;;14.18;11.98;;;21.90;99.90;;;;;;5050735;28;20017;-73
2021/06/25 09:36:21;;;;;;;11.23;10.02;;;21.90;99.90;;;;;;5054877;28;20027;-72
2021/06/25 09:38:54;;;;;;;16.67;11.45;;;22.00;99.90;;;;;;5051425;28;20025;-73
2021/06/25 09:41:20;;;;;;;14.75;10.30;;;22.10;99.90;;;;;;5050965;28;20028;-73
2021/06/25 09:43:57;;;;;;;16.98;10.15;;;22.10;99.90;;;;;;5050052;28;20440;-74
2021/06/25 09:46:27;;;;;;;19.40;10.73;;;22.10;99.90;;;;;;5055888;28;20033;-74
2021/06/25 09:49:06;;;;;;;13.25;10.05;;;22.20;99.90;;;;;;5051650;28;20067;-74
2021/06/25 09:51:34;;;;;;;17.27;11.75;;;22.20;99.90;;;;;;5053022;28;20464;-74
2021/06/25 09:54:11;;;;;;;17.42;11.60;;;22.30;99.90;;;;;;5049432;28;20029;-74
2021/06/25 09:57:21;;;;;;;12.52;10.40;;;22.30;99.90;;;;;;5045729;28;20025;-73
2021/06/25 10:04:49;;;;;;;17.90;11.63;;;22.10;99.90;;;;;;5051878;28;20033;-73
2021/06/25 10:07:20;;;;;;;18.35;12.90;;;22.20;99.90;;;;;;5052624;28;20463;-75
2021/06/25 10:09:48;;;;;;;18.00;10.80;;;22.40;99.90;;;;;;5044444;28;20020;-74
2021/06/25 10:12:17;;;;;;;14.27;11.40;;;22.70;99.90;;;;;;5051688;28;20043;-73
2021/06/25 10:14:44;;;;;;;15.48;11.10;;;22.80;99.90;;;;;;5054862;28;20025;-73
2021/06/25 10:17:11;;;;;;;12.27;10.00;;;23.10;99.90;;;;;;5052931;28;20111;-73
2021/06/25 10:19:40;;;;;;;16.05;10.05;;;23.20;99.90;;;;;;5050587;28;20154;-75
2021/06/25 10:22:08;;;;;;;15.10;10.48;;;23.60;99.80;;;;;;5053254;28;20454;-74
2021/06/25 10:24:35;;;;;;;13.52;10.25;;;23.50;98.80;;;;;;5054602;28;20044;-73
2021/06/25 10:27:02;;;;;;;14.65;10.43;;;23.50;99.90;;;;;;5069271;28;20086;-74
2021/06/25 10:29:31;;;;;;;13.13;10.10;;;23.40;99.00;;;;;;5047265;28;20017;-74
2021/06/25 10:31:57;;;;;;;15.38;11.25;;;23.60;99.90;;;;;;5056933;28;20070;-72
2021/06/25 10:34:23;;;;;;;13.60;9.95;;;23.70;98.00;;;;;;5048003;28;20017;-74
2021/06/25 10:36:51;;;;;;;12.80;9.45;;;23.90;98.80;;;;;;5051250;28;20024;-74
2021/06/25 10:39:17;;;;;;;12.73;10.13;;;23.90;98.70;;;;;;5046200;28;20012;-73
2021/06/25 10:41:57;;;;;;;11.45;10.20;;;23.80;99.30;;;;;;5041999;28;20025;-75
2021/06/25 10:44:45;;;;;;;14.80;10.88;;;23.90;98.10;;;;;;5050694;28;20025;-74
2021/06/25 10:47:22;;;;;;;17.58;11.00;;;23.90;98.50;;;;;;5051514;28;20032;-73
2021/06/25 10:50:06;;;;;;;11.80;10.02;;;23.80;99.50;;;;;;5056020;28;20036;-74
2021/06/25 10:52:34;;;;;;;11.27;9.82;;;23.80;98.60;;;;;;5047576;28;20067;-74
2021/06/25 10:55:08;;;;;;;14.20;9.32;;;24.20;98.10;;;;;;5054181;28;20028;-74
2021/06/25 10:57:55;;;;;;;15.90;9.48;;;24.40;97.40;;;;;;5050062;28;20099;-71
2021/06/25 11:00:24;;;;;;;12.73;8.98;;;24.20;98.10;;;;;;5053583;28;20032;-71
2021/06/25 11:02:50;;;;;;;15.70;9.60;;;23.90;97.70;;;;;;5058535;28;20587;-71
2021/06/25 11:05:25;;;;;;;9.63;8.48;;;23.90;96.70;;;;;;5059982;28;20123;-71
2021/06/25 11:07:51;;;;;;;10.73;8.18;;;23.90;97.00;;;;;;5053347;28;20055;-71
2021/06/25 11:10:49;;;;;;;13.45;8.90;;;23.90;97.60;;;;;;5057650;28;20053;-72
2021/06/25 11:13:21;;;;;;;9.57;8.00;;;23.80;95.70;;;;;;5045299;28;20036;-72
2021/06/25 11:15:49;;;;;;;9.45;7.70;;;23.80;96.00;;;;;;5062764;28;20487;-73
2021/06/25 11:18:19;;;;;;;11.85;7.85;;;24.00;96.60;;;;;;5053944;28;20013;-74
2021/06/25 11:20:59;;;;;;;9.35;8.35;;;23.80;96.20;;;;;;5058600;28;20047;-72
2021/06/25 11:23:44;;;;;;;11.65;8.38;;;23.80;96.20;;;;;;5059501;28;20029;-72
2021/06/25 11:26:13;;;;;;;8.73;7.82;;;23.80;95.10;;;;;;5061209;28;20038;-72
2021/06/25 11:28:43;;;;;;;9.23;7.20;;;23.80;94.60;;;;;;5055242;28;20035;-72
2021/06/25 11:33:56;;;;;;;9.93;7.50;;;23.70;95.60;;;;;;5054357;28;20016;-72
2021/06/25 11:36:49;;;;;;;11.93;7.18;;;23.70;96.80;;;;;;5056514;28;20017;-73
2021/06/25 11:39:34;;;;;;;11.75;7.03;;;23.60;96.20;;;;;;5054879;28;20025;-73
2021/06/25 11:42:07;;;;;;;9.88;7.10;;;23.50;95.60;;;;;;5052132;28;20126;-73
2021/06/25 11:44:45;;;;;;;8.35;7.55;;;23.50;96.80;;;;;;5061834;28;20111;-73
2021/06/25 11:47:14;;;;;;;10.95;7.50;;;23.50;96.80;;;;;;5049652;28;20473;-73
2021/06/25 11:49:50;;;;;;;10.90;6.75;;;23.50;97.00;;;;;;5056092;28;20358;-73
2021/06/25 11:52:18;;;;;;;8.00;6.88;;;23.60;97.40;;;;;;5057324;28;20063;-74
2021/06/25 11:54:47;;;;;;;9.00;7.75;;;23.60;96.90;;;;;;5054617;28;20020;-75
2021/06/25 11:57:36;;;;;;;8.20;6.90;;;23.60;96.80;;;;;;5070982;28;20025;-73
2021/06/25 12:00:20;;;;;;;11.13;7.53;;;23.60;96.60;;;;;;5056020;28;20040;-74
2021/06/25 12:02:49;;;;;;;9.23;8.18;;;23.50;96.70;;;;;;5059463;28;20021;-72
2021/06/25 12:05:20;;;;;;;11.60;7.53;;;23.50;98.20;;;;;;5058893;28;20032;-72
2021/06/25 12:07:59;;;;;;;9.77;7.68;;;23.40;97.30;;;;;;5057867;28;20051;-73
2021/06/25 12:10:24;;;;;;;9.55;6.93;;;23.40;97.60;;;;;;5057372;28;20500;-73
2021/06/25 12:12:56;;;;;;;9.93;7.25;;;23.50;97.80;;;;;;5060908;28;20032;-73
2021/06/25 12:15:21;;;;;;;8.90;7.40;;;23.30;97.40;;;;;;5055966;28;20087;-73
2021/06/25 12:17:48;;;;;;;9.70;7.72;;;23.40;98.60;;;;;;5054686;28;20484;-73
2021/06/25 12:20:18;;;;;;;12.93;7.47;;;23.40;97.90;;;;;;5056195;28;20071;-73
2021/06/25 12:22:56;;;;;;;12.27;8.30;;;23.40;98.60;;;;;;5059172;28;20025;-73
2021/06/25 12:25:34;;;;;;;8.00;7.18;;;23.20;97.90;;;;;;5052248;28;20059;-73
2021/06/25 12:28:12;;;;;;;10.20;7.38;;;23.40;98.80;;;;;;5050553;28;20155;-73
2021/06/25 12:30:44;;;;;;;8.52;7.47;;;23.30;98.80;;;;;;5054950;28;20115;-74
2021/06/25 12:33:10;;;;;;;9.45;8.13;;;23.30;98.30;;;;;;5056232;28;20419;-73
2021/06/25 12:35:43;;;;;;;8.48;7.15;;;23.30;98.60;;;;;;5059780;28;20035;-73
2021/06/25 12:38:11;;;;;;;9.50;7.45;;;23.40;98.60;;;;;;5050977;28;20461;-73
2021/06/25 12:40:46;;;;;;;7.63;6.93;;;23.40;97.80;;;;;;5058754;28;20032;-73
2021/06/25 12:43:36;;;;;;;11.82;8.90;;;23.40;98.50;;;;;;5065396;28;20032;-73
2021/06/25 12:46:10;;;;;;;10.07;8.50;;;23.40;98.60;;;;;;5052421;28;20051;-73
2021/06/25 12:48:48;;;;;;;9.77;7.90;;;23.40;99.40;;;;;;5057661;28;20468;-73
2021/06/25 12:51:19;;;;;;;11.55;8.15;;;23.20;98.80;;;;;;5067629;28;20025;-73